VIR6J KMIA-EGLL
Flight info
| Callsign | VIR6J |
|---|---|
| Flight time | N/A |
| Altitude | 35000 |
| Route | FOLZZ3 SNAGY/M079F350 DCT ONGOT DCT DRYED M201 NOVOK/M079F370 M201 CARAC/N0455F370 DCT PORTI/M079F380 DCT 47N050W 49N040W 51N030W 52N020W DCT LIMRI DCT XETBO/N0465F390 DCT LINRA DCT LEDGO DCT FONZU DCT ELRIP DCT OTMET OTMET1H |
| Aircraft | A339/H-SADE1E2E3GHIJ3J5M1P2RWXY/LB2D1 |
Departure
| Time | N/A |
|---|---|
| Airport | Miami International Airport (KMIA) |
Arrival
| Time | 2026-05-04 03:24 |
|---|---|
| Airport | London Heathrow Airport (EGLL) |
| Time | Latitude | Longitude | Altitude | Speed | Heading |
|---|---|---|---|---|---|
| 2026-05-04 02:41 | 51.09316 | -6.14957 | 34958 ft | 466 kts | 99° |
| 2026-05-04 02:41 | 51.08764 | -6.09946 | 34958 ft | 466 kts | 99° |
| 2026-05-04 02:42 | 51.07636 | -5.99779 | 34954 ft | 467 kts | 99° |
| 2026-05-04 02:42 | 51.06499 | -5.89605 | 34957 ft | 467 kts | 99° |
| 2026-05-04 02:43 | 51.05351 | -5.79424 | 34955 ft | 468 kts | 99° |
| 2026-05-04 02:43 | 51.04195 | -5.69248 | 34953 ft | 469 kts | 100° |
| 2026-05-04 02:44 | 51.03028 | -5.59059 | 34952 ft | 469 kts | 100° |
| 2026-05-04 02:44 | 51.01850 | -5.48854 | 34951 ft | 470 kts | 100° |
| 2026-05-04 02:45 | 51.00661 | -5.38647 | 34951 ft | 470 kts | 100° |
| 2026-05-04 02:45 | 50.99463 | -5.28429 | 34950 ft | 471 kts | 101° |
| 2026-05-04 02:46 | 50.98253 | -5.18207 | 34951 ft | 472 kts | 101° |
| 2026-05-04 02:46 | 50.97033 | -5.07973 | 34950 ft | 472 kts | 101° |
| 2026-05-04 02:47 | 50.95803 | -4.97734 | 34951 ft | 473 kts | 101° |
| 2026-05-04 02:47 | 50.94563 | -4.87489 | 34950 ft | 473 kts | 101° |
| 2026-05-04 02:48 | 50.93311 | -4.77230 | 34949 ft | 474 kts | 101° |
| 2026-05-04 02:48 | 50.92049 | -4.66967 | 34956 ft | 474 kts | 101° |
| 2026-05-04 02:49 | 50.90786 | -4.56774 | 34956 ft | 475 kts | 101° |
| 2026-05-04 02:49 | 50.89504 | -4.46506 | 34960 ft | 475 kts | 102° |
| 2026-05-04 02:50 | 50.88213 | -4.36235 | 34964 ft | 475 kts | 102° |
| 2026-05-04 02:50 | 50.86912 | -4.25976 | 34964 ft | 475 kts | 102° |
| 2026-05-04 02:51 | 50.85601 | -4.15710 | 34963 ft | 475 kts | 102° |
| 2026-05-04 02:51 | 50.84283 | -4.05461 | 34968 ft | 475 kts | 102° |
| 2026-05-04 02:52 | 50.82960 | -3.95224 | 34974 ft | 475 kts | 102° |
| 2026-05-04 02:52 | 50.81286 | -3.85137 | 34969 ft | 474 kts | 110° |
| 2026-05-04 02:53 | 50.79182 | -3.75259 | 34969 ft | 474 kts | 109° |
| 2026-05-04 02:53 | 50.77116 | -3.65381 | 34967 ft | 474 kts | 109° |
| 2026-05-04 02:54 | 50.75036 | -3.55508 | 34971 ft | 474 kts | 110° |
| 2026-05-04 02:54 | 50.72946 | -3.45649 | 34969 ft | 473 kts | 110° |
| 2026-05-04 02:55 | 50.69807 | -3.30938 | 34966 ft | 473 kts | 110° |
| 2026-05-04 02:56 | 50.67697 | -3.21111 | 34968 ft | 473 kts | 110° |
| 2026-05-04 02:56 | 50.65580 | -3.11300 | 34960 ft | 473 kts | 110° |
| 2026-05-04 02:57 | 50.63800 | -3.01309 | 34783 ft | 476 kts | 100° |
| 2026-05-04 02:57 | 50.63542 | -2.96110 | 34306 ft | 477 kts | 92° |
| 2026-05-04 02:57 | 50.63765 | -2.90881 | 33448 ft | 481 kts | 84° |
| 2026-05-04 02:57 | 50.64362 | -2.85668 | 32232 ft | 486 kts | 82° |
| 2026-05-04 02:58 | 50.64987 | -2.80421 | 30811 ft | 490 kts | 82° |
| 2026-05-04 02:58 | 50.65599 | -2.75124 | 29534 ft | 491 kts | 83° |
| 2026-05-04 02:58 | 50.66193 | -2.69857 | 28523 ft | 486 kts | 83° |
| 2026-05-04 02:58 | 50.66772 | -2.64640 | 27849 ft | 479 kts | 83° |
| 2026-05-04 02:59 | 50.67336 | -2.59526 | 27475 ft | 466 kts | 83° |
| 2026-05-04 02:59 | 50.67863 | -2.54565 | 27196 ft | 452 kts | 85° |
| 2026-05-04 02:59 | 50.68096 | -2.49683 | 26779 ft | 443 kts | 93° |
| 2026-05-04 02:59 | 50.67958 | -2.44862 | 26507 ft | 441 kts | 98° |
| 2026-05-04 03:00 | 50.67724 | -2.40010 | 26257 ft | 445 kts | 97° |
| 2026-05-04 03:00 | 50.67513 | -2.35148 | 25952 ft | 443 kts | 97° |
| 2026-05-04 03:00 | 50.67311 | -2.30323 | 25662 ft | 440 kts | 97° |
| 2026-05-04 03:00 | 50.67109 | -2.25522 | 25365 ft | 439 kts | 97° |
| 2026-05-04 03:01 | 50.66903 | -2.20727 | 25067 ft | 437 kts | 97° |
| 2026-05-04 03:01 | 50.66695 | -2.15964 | 24778 ft | 435 kts | 97° |
| 2026-05-04 03:01 | 50.66485 | -2.11207 | 24472 ft | 433 kts | 97° |
| 2026-05-04 03:01 | 50.66273 | -2.06480 | 24182 ft | 432 kts | 97° |
| 2026-05-04 03:02 | 50.66096 | -2.01763 | 23887 ft | 431 kts | 94° |
| 2026-05-04 03:02 | 50.66147 | -1.97045 | 23597 ft | 430 kts | 91° |
| 2026-05-04 03:02 | 50.66215 | -1.92341 | 23277 ft | 428 kts | 91° |
| 2026-05-04 03:02 | 50.66277 | -1.87671 | 22988 ft | 426 kts | 91° |
| 2026-05-04 03:03 | 50.66333 | -1.83013 | 22702 ft | 424 kts | 91° |
| 2026-05-04 03:03 | 50.66385 | -1.78377 | 22417 ft | 422 kts | 91° |
| 2026-05-04 03:03 | 50.66434 | -1.73761 | 22133 ft | 420 kts | 91° |
| 2026-05-04 03:03 | 50.66481 | -1.69168 | 21846 ft | 418 kts | 91° |
| 2026-05-04 03:04 | 50.66526 | -1.64589 | 21562 ft | 417 kts | 91° |
| 2026-05-04 03:04 | 50.66575 | -1.60031 | 21283 ft | 415 kts | 90° |
| 2026-05-04 03:04 | 50.66923 | -1.55508 | 21004 ft | 417 kts | 80° |
| 2026-05-04 03:04 | 50.67749 | -1.51125 | 20576 ft | 419 kts | 70° |
| 2026-05-04 03:05 | 50.68994 | -1.46979 | 20109 ft | 416 kts | 65° |
| 2026-05-04 03:05 | 50.70264 | -1.42981 | 19667 ft | 411 kts | 65° |
| 2026-05-04 03:05 | 50.71526 | -1.38945 | 19223 ft | 408 kts | 65° |
| 2026-05-04 03:05 | 50.72769 | -1.34929 | 18779 ft | 407 kts | 65° |
| 2026-05-04 03:06 | 50.74004 | -1.30917 | 18331 ft | 405 kts | 65° |
| 2026-05-04 03:06 | 50.75286 | -1.26917 | 17857 ft | 402 kts | 60° |
| 2026-05-04 03:06 | 50.76940 | -1.23448 | 17427 ft | 400 kts | 47° |
| 2026-05-04 03:06 | 50.79051 | -1.20605 | 16990 ft | 399 kts | 34° |
| 2026-05-04 03:07 | 50.81412 | -1.18224 | 16557 ft | 396 kts | 32° |
| 2026-05-04 03:07 | 50.83729 | -1.15876 | 16118 ft | 394 kts | 33° |
| 2026-05-04 03:07 | 50.85989 | -1.13559 | 15695 ft | 391 kts | 33° |
| 2026-05-04 03:07 | 50.88257 | -1.11219 | 15285 ft | 388 kts | 33° |
| 2026-05-04 03:08 | 50.90506 | -1.08891 | 14849 ft | 385 kts | 33° |
| 2026-05-04 03:08 | 50.92744 | -1.06570 | 14432 ft | 383 kts | 33° |
| 2026-05-04 03:08 | 50.94965 | -1.04265 | 14015 ft | 380 kts | 33° |
| 2026-05-04 03:08 | 50.97171 | -1.01972 | 13590 ft | 378 kts | 33° |
| 2026-05-04 03:09 | 50.99348 | -0.99678 | 13162 ft | 374 kts | 36° |
| 2026-05-04 03:09 | 51.01335 | -0.97029 | 12787 ft | 371 kts | 45° |
| 2026-05-04 03:09 | 51.03058 | -0.94017 | 12443 ft | 369 kts | 50° |
| 2026-05-04 03:09 | 51.04758 | -0.90943 | 12146 ft | 366 kts | 49° |
| 2026-05-04 03:10 | 51.06420 | -0.87974 | 12023 ft | 353 kts | 49° |
| 2026-05-04 03:10 | 51.07995 | -0.85173 | 11860 ft | 336 kts | 49° |
| 2026-05-04 03:10 | 51.09512 | -0.82472 | 11697 ft | 319 kts | 49° |
| 2026-05-04 03:10 | 51.10964 | -0.79882 | 11310 ft | 310 kts | 49° |
| 2026-05-04 03:11 | 51.12391 | -0.77331 | 10775 ft | 307 kts | 49° |
| 2026-05-04 03:11 | 51.13804 | -0.74801 | 10295 ft | 303 kts | 49° |
| 2026-05-04 03:11 | 51.14921 | -0.72801 | 10067 ft | 295 kts | 49° |
| 2026-05-04 03:11 | 51.16293 | -0.70339 | 9792 ft | 299 kts | 49° |
| 2026-05-04 03:12 | 51.17669 | -0.67871 | 9524 ft | 296 kts | 49° |
| 2026-05-04 03:12 | 51.19028 | -0.65433 | 9249 ft | 294 kts | 49° |
| 2026-05-04 03:12 | 51.20068 | -0.63564 | 9028 ft | 294 kts | 49° |
| 2026-05-04 03:12 | 51.21420 | -0.61131 | 8766 ft | 293 kts | 49° |
| 2026-05-04 03:13 | 51.22765 | -0.58708 | 8501 ft | 291 kts | 49° |
| 2026-05-04 03:13 | 51.24092 | -0.56316 | 8379 ft | 281 kts | 49° |
| 2026-05-04 03:13 | 51.25353 | -0.54042 | 8226 ft | 266 kts | 49° |
| 2026-05-04 03:13 | 51.26562 | -0.51859 | 7798 ft | 261 kts | 49° |
| 2026-05-04 03:14 | 51.27746 | -0.49718 | 7500 ft | 253 kts | 49° |
| 2026-05-04 03:14 | 51.28913 | -0.47607 | 7254 ft | 255 kts | 49° |
| 2026-05-04 03:14 | 51.30060 | -0.45451 | 7040 ft | 253 kts | 54° |
| 2026-05-04 03:14 | 51.30850 | -0.42974 | 6956 ft | 252 kts | 73° |
| 2026-05-04 03:15 | 51.31279 | -0.40260 | 6959 ft | 252 kts | 77° |
| 2026-05-04 03:15 | 51.31700 | -0.37538 | 6960 ft | 252 kts | 77° |
| 2026-05-04 03:15 | 51.32139 | -0.34818 | 6960 ft | 253 kts | 76° |
| 2026-05-04 03:15 | 51.32588 | -0.32105 | 6960 ft | 253 kts | 76° |
| 2026-05-04 03:16 | 51.33018 | -0.29536 | 6961 ft | 253 kts | 76° |
| 2026-05-04 03:16 | 51.33496 | -0.26671 | 6961 ft | 281 kts | 76° |
| 2026-05-04 03:16 | 51.34003 | -0.23620 | 6902 ft | 284 kts | 76° |
| 2026-05-04 03:16 | 51.34511 | -0.20579 | 6542 ft | 281 kts | 76° |
| 2026-05-04 03:17 | 51.35018 | -0.17563 | 6135 ft | 279 kts | 76° |
| 2026-05-04 03:17 | 51.35519 | -0.14587 | 6006 ft | 281 kts | 76° |
| 2026-05-04 03:17 | 51.36090 | -0.11659 | 5835 ft | 270 kts | 64° |
| 2026-05-04 03:17 | 51.37279 | -0.09504 | 5636 ft | 253 kts | 31° |
| 2026-05-04 03:18 | 51.38902 | -0.08693 | 5101 ft | 245 kts | 358° |
| 2026-05-04 03:18 | 51.40572 | -0.09066 | 4665 ft | 241 kts | 345° |
| 2026-05-04 03:18 | 51.42207 | -0.09626 | 4206 ft | 240 kts | 349° |
| 2026-05-04 03:18 | 51.43859 | -0.09896 | 3811 ft | 237 kts | 354° |
| 2026-05-04 03:19 | 51.45503 | -0.10079 | 3405 ft | 234 kts | 352° |
| 2026-05-04 03:19 | 51.46920 | -0.11129 | 3175 ft | 220 kts | 314° |
| 2026-05-04 03:19 | 51.47643 | -0.13260 | 3085 ft | 215 kts | 283° |
| 2026-05-04 03:19 | 51.47823 | -0.15498 | 2966 ft | 192 kts | 271° |
| 2026-05-04 03:20 | 51.47837 | -0.17566 | 2867 ft | 184 kts | 269° |
| 2026-05-04 03:20 | 51.47835 | -0.19623 | 2783 ft | 184 kts | 270° |
| 2026-05-04 03:20 | 51.47830 | -0.21653 | 2701 ft | 177 kts | 269° |
| 2026-05-04 03:20 | 51.47825 | -0.23548 | 2520 ft | 163 kts | 269° |
| 2026-05-04 03:21 | 51.47820 | -0.25344 | 2321 ft | 162 kts | 269° |
| 2026-05-04 03:21 | 51.47814 | -0.27137 | 2104 ft | 157 kts | 270° |
| 2026-05-04 03:21 | 51.47809 | -0.28860 | 1912 ft | 153 kts | 270° |
| 2026-05-04 03:21 | 51.47805 | -0.30503 | 1712 ft | 145 kts | 270° |
| 2026-05-04 03:22 | 51.47800 | -0.32129 | 1501 ft | 142 kts | 270° |
| 2026-05-04 03:22 | 51.47796 | -0.33739 | 1319 ft | 146 kts | 270° |
| 2026-05-04 03:22 | 51.47790 | -0.35321 | 1122 ft | 142 kts | 270° |
| 2026-05-04 03:22 | 51.47786 | -0.36944 | 913 ft | 142 kts | 270° |
| 2026-05-04 03:23 | 51.47778 | -0.38550 | 668 ft | 145 kts | 270° |
| 2026-05-04 03:23 | 51.47785 | -0.40175 | 508 ft | 142 kts | 271° |
| 2026-05-04 03:23 | 51.47779 | -0.41787 | 325 ft | 148 kts | 270° |
| 2026-05-04 03:23 | 51.47774 | -0.43259 | 139 ft | 145 kts | 270° |
| 2026-05-04 03:24 | 51.47769 | -0.44821 | 98 ft | 114 kts | 270° |
| 2026-05-04 03:24 | 51.47762 | -0.45599 | 91 ft | 25 kts | 270° |
| 2026-05-04 03:24 | 51.47696 | -0.45900 | 94 ft | 30 kts | 229° |
| 2026-05-04 03:24 | 51.47617 | -0.46029 | 95 ft | 5 kts | 222° |
| 2026-05-04 03:25 | 51.47616 | -0.46030 | 95 ft | 0 kts | 222° |
| 2026-05-04 03:25 | 51.47612 | -0.46035 | 95 ft | 5 kts | 220° |
| 2026-05-04 03:25 | 51.47521 | -0.46139 | 97 ft | 15 kts | 245° |
| 2026-05-04 03:25 | 51.47516 | -0.46310 | 93 ft | 14 kts | 266° |
| 2026-05-04 03:26 | 51.47471 | -0.46412 | 96 ft | 9 kts | 181° |
| 2026-05-04 03:26 | 51.47436 | -0.46412 | 96 ft | 2 kts | 181° |
| 2026-05-04 03:26 | 51.47430 | -0.46413 | 96 ft | 0 kts | 181° |
| 2026-05-04 03:27 | 51.45927 | -0.46498 | 0 ft | 270 kts | 182° |